METAR Data
IDs: Format: Raw Decoded Include TAF

Data at: 1936 UTC 23 Sep 2018

METAR for:PACD (Cold Bay Arpt, AK, US)
Text:PACD 231853Z 36004KT 10SM OVC048 08/05 A2974 RMK AO2 SLP071 T00830050
Temperature: 8.3°C ( 47°F)
Dewpoint: 5.0°C ( 41°F) [RH = 80%]
Pressure (altimeter):29.74 inches Hg (1007.2 mb) [Sea level pressure: 1007.1 mb]
Winds:from the N (360 degrees) at 5 MPH (4 knots; 2.1 m/s)
Visibility:10 or more sm (16+ km)
Ceiling:4800 feet AGL
Clouds: overcast cloud deck at 4800 feet AGL
Text:PACD 231753Z 00000KT 10SM OVC050 07/04 A2975 RMK AO2 SLP074 T00670039 10089 20033 56020
Temperature: 6.7°C ( 44°F)
Dewpoint: 3.9°C ( 39°F) [RH = 82%]
Pressure (altimeter):29.75 inches Hg (1007.5 mb) [Sea level pressure: 1007.4 mb]
Winds:calm
Visibility:10 or more sm (16+ km)
Ceiling:5000 feet AGL
Clouds: overcast cloud deck at 5000 feet AGL
Text:PACD 231653Z 19003KT 10SM FEW050 BKN085 05/03 A2976 RMK AO2 SLP078 T00500033
Temperature: 5.0°C ( 41°F)
Dewpoint: 3.3°C ( 38°F) [RH = 89%]
Pressure (altimeter):29.76 inches Hg (1007.9 mb) [Sea level pressure: 1007.8 mb]
Winds:from the S (190 degrees) at 3 MPH (3 knots; 1.5 m/s)
Visibility:10 or more sm (16+ km)
Ceiling:8500 feet AGL
Clouds: few clouds at 5000 feet AGL, broken clouds at 8500 feet AGL
Text:PACD 231553Z AUTO 16003KT 10SM FEW055 06/04 A2978 RMK AO2 SLP085 T00610039 TSNO
Temperature: 6.1°C ( 43°F)
Dewpoint: 3.9°C ( 39°F) [RH = 86%]
Pressure (altimeter):29.78 inches Hg (1008.5 mb) [Sea level pressure: 1008.5 mb]
Winds:from the SSE (160 degrees) at 3 MPH (3 knots; 1.5 m/s)
Visibility:10 or more sm (16+ km)
Ceiling:at least 12,000 feet AGL
Clouds: few clouds at 5500 feet AGL
QC Flag:automated observation with no human augmentation
Text:PACD 231453Z AUTO 19004KT 10SM FEW050 04/03 A2981 RMK AO2 SLP094 T00440028 58010 TSNO
Temperature: 4.4°C ( 40°F)
Dewpoint: 2.8°C ( 37°F) [RH = 89%]
Pressure (altimeter):29.81 inches Hg (1009.6 mb) [Sea level pressure: 1009.4 mb]
Winds:from the S (190 degrees) at 5 MPH (4 knots; 2.1 m/s)
Visibility:10 or more sm (16+ km)
Ceiling:at least 12,000 feet AGL
Clouds: few clouds at 5000 feet AGL
QC Flag:automated observation with no human augmentation
Text:PACD 231353Z AUTO 18004KT 10SM BKN050 04/02 A2982 RMK AO2 SLP099 T00440022 TSNO
Temperature: 4.4°C ( 40°F)
Dewpoint: 2.2°C ( 36°F) [RH = 86%]
Pressure (altimeter):29.82 inches Hg (1009.9 mb) [Sea level pressure: 1009.9 mb]
Winds:from the S (180 degrees) at 5 MPH (4 knots; 2.1 m/s)
Visibility:10 or more sm (16+ km)
Ceiling:5000 feet AGL
Clouds: broken clouds at 5000 feet AGL
QC Flag:automated observation with no human augmentation

TAF for:PACD (Cold Bay Arpt, AK, US) issued at 1723 UTC 23 Sep 2018
Text:PACD 231723Z 2318/2418 VRB06KT P6SM VCSH BKN050
Forecast period:1800 to 2100 UTC 23 September 2018
Forecast type:FROM: standard forecast or significant change
Winds:variable direction winds at 7 MPH (6 knots; 3.1 m/s)
Visibility:6 or more sm (10+ km)
Ceiling:5000 feet AGL
Clouds: broken clouds at 5000 feet AGL
Weather:VCSH (showers in vicinity)
Text:FM232100 32010KT P6SM -RA SCT015 OVC025
Forecast period:2100 UTC 23 September 2018 to 0700 UTC 24 September 2018
Forecast type:FROM: standard forecast or significant change
Winds:from the NW (320 degrees) at 12 MPH (10 knots; 5.1 m/s)
Visibility:6 or more sm (10+ km)
Ceiling:2500 feet AGL
Clouds: scattered clouds at 1500 feet AGL, overcast cloud deck at 2500 feet AGL
Weather:-RA (light rain)
Text:FM240700 27014KT P6SM -RA SCT015 OVC025
Forecast period:0700 to 1000 UTC 24 September 2018
Forecast type:FROM: standard forecast or significant change
Winds:from the W (270 degrees) at 16 MPH (14 knots; 7.2 m/s)
Visibility:6 or more sm (10+ km)
Ceiling:2500 feet AGL
Clouds: scattered clouds at 1500 feet AGL, overcast cloud deck at 2500 feet AGL
Weather:-RA (light rain)
Text:FM241000 26016KT P6SM -SHRA SCT025 OVC050
Forecast period:1000 to 1300 UTC 24 September 2018
Forecast type:FROM: standard forecast or significant change
Winds:from the W (260 degrees) at 18 MPH (16 knots; 8.2 m/s)
Visibility:6 or more sm (10+ km)
Ceiling:5000 feet AGL
Clouds: scattered clouds at 2500 feet AGL, overcast cloud deck at 5000 feet AGL
Weather:-SHRA (light rain showers)
Text:FM241300 25018G26KT P6SM VCSH BKN050
Forecast period:1300 to 1800 UTC 24 September 2018
Forecast type:FROM: standard forecast or significant change
Winds:from the WSW (250 degrees) at 21 MPH (18 knots; 9.3 m/s) gusting to 30 MPH (26 knots; 13.4 m/s)
Visibility:6 or more sm (10+ km)
Ceiling:5000 feet AGL
Clouds: broken clouds at 5000 feet AGL
Weather:VCSH (showers in vicinity)